TAF Text Data
IDs:
Format:
Raw Decoded Include METAR

Data at: 0138 UTC 29 May 2022

Region: TOP
KATL 282338Z 2900/3006 32005KT P6SM SCT050
  FM290100 31003KT P6SM FEW250
  FM291000 06004KT P6SM FEW250
  FM291500 13007KT P6SM FEW050


KBOS 282320Z 2900/3006 26007KT P6SM SCT060 BKN200
  FM290200 34008KT P6SM FEW030
  FM291700 12006KT P6SM SKC
  FM292300 18009KT P6SM FEW110
  FM300300 22008KT P6SM FEW150


KBWI 282339Z 2900/3006 27004KT P6SM FEW050 FEW120
  FM290100 00000KT P6SM FEW050 FEW250
  FM292100 18003KT P6SM FEW060 FEW250
  FM300000 00000KT P6SM SKC


KCLE 282324Z 2900/3006 02005KT P6SM SCT250
  FM290300 18005KT P6SM SCT250
  FM291600 20009KT P6SM SCT040


KCLT 282341Z 2900/3006 03003KT P6SM FEW250
  FM291300 07005KT P6SM SKC
  FM291600 14005KT P6SM FEW050
  FM291900 17004KT P6SM SCT050
  FM300000 12004KT P6SM FEW250


KCVG 282329Z 2900/3006 VRB03KT P6SM BKN040
  FM290200 VRB03KT P6SM SCT250
  FM291500 18008KT P6SM SCT050
  FM300000 16005KT P6SM SCT250


KDCA 282339Z 2900/3006 26006KT P6SM FEW060 FEW250
  FM291900 21003KT P6SM FEW070 FEW250


KDEN 282359Z 2900/3006 30013KT P6SM FEW100 SCT150 BKN200
  FM290100 29013KT P6SM FEW100 BKN150
  FM290500 22007KT P6SM FEW100 BKN150
  FM291600 15011KT P6SM SCT100
  FM291800 23013KT P6SM VCTS SCT060CB BKN150
  FM292100 29013KT P6SM TS SCT060CB BKN150
  FM292300 03013KT P6SM TS SCT060CB BKN150
  FM300100 04010KT P6SM VCSH SCT060 BKN120


KDFW 282320Z 2900/3006 17016G26KT P6SM FEW250

KDTW 282320Z 2900/3006 15005KT P6SM BKN180
  FM290400 16004KT P6SM BKN100
  FM291600 18012G18KT P6SM SCT035
  FM300000 16006KT P6SM FEW050 SCT200


KEWR 282329Z 2900/3006 29011KT P6SM SCT060 SCT120 SCT250
  FM290200 32008KT P6SM SCT120 SCT250
  FM290500 34004KT P6SM SCT250
  FM291600 VRB05KT P6SM FEW250
  FM291800 24006KT P6SM FEW250
  FM292100 15007KT P6SM FEW250
  FM300300 19004KT P6SM SKC


KFLL 282333Z 2900/3006 15011KT P6SM VCTS SCT025CB BKN050
  FM290300 VRB04KT P6SM VCSH FEW025 BKN050
  FM290600 VRB03KT P6SM FEW025 SCT050
  FM291500 13011KT P6SM SCT025 BKN050
  FM291700 13012KT P6SM SCT025 BKN050
  PROB30 2918/2924 VRB15G25KT 6SM TSRA SCT015 BKN025CB


KIAD 282339Z 2900/3006 VRB03KT P6SM FEW060 FEW150
  FM291900 21003KT P6SM FEW050 FEW250
  FM292100 19003KT P6SM FEW060 FEW250


KIAH 282321Z 2900/3006 14013KT P6SM FEW070
  FM290900 17003KT P6SM FEW015
  FM291500 18010KT P6SM SCT025
  FM292100 16015KT P6SM FEW050 SCT250
  FM300300 16010KT P6SM FEW250


KJFK 290017Z 2900/3006 28012KT P6SM SCT060 BKN100 BKN200
  TEMPO 2900/2901 5SM -SHRA BKN060
  FM290100 31008KT P6SM SCT120 SCT250
  FM290700 34005KT P6SM SCT250
  FM291300 VRB05KT P6SM FEW250
  FM291500 19008KT P6SM FEW250
  FM300300 20004KT P6SM SKC


KLAS 282320Z 2900/3006 24018G30KT P6SM FEW180 BKN250
  FM290500 21013G24KT P6SM FEW250
  FM290900 24010KT P6SM FEW250
  FM291400 32012G20KT P6SM SKC


KLAX 282339Z 2900/3006 26012KT P6SM SCT020 BKN040
  FM290400 27010KT P6SM SCT030
  FM290800 29005KT P6SM OVC020
  FM291200 12006KT P6SM OVC020
  FM291800 26011KT P6SM BKN025
  FM292000 26015KT P6SM SCT025
  FM300400 27008KT P6SM SKC


KLGA 290017Z 2900/3006 29011KT 5SM -SHRA FEW035 BKN060 BKN090
  FM290100 32007KT P6SM SCT120 SCT250
  FM290700 35004KT P6SM SCT250
  FM291200 VRB05KT P6SM SCT250
  FM291400 04006KT P6SM FEW250
  FM292100 17008KT P6SM FEW250
  FM300400 20004KT P6SM SKC


KMCO 282339Z 2900/3006 VRB06KT P6SM SCT050 SCT250
  FM290400 VRB03KT P6SM FEW250
  FM291500 11006KT P6SM SCT035
  FM291900 12008KT P6SM VCTS SCT040CB SCT250
  FM300100 VRB05KT P6SM FEW050


KMDW 282320Z 2900/3006 18011G20KT P6SM FEW050 SCT120
  FM290100 18010KT P6SM SCT120
  FM291300 19016G26KT P6SM FEW100 SCT250
  FM291900 19020G32KT P6SM FEW100 SCT250
  FM300100 19017G26KT P6SM SCT150


KMEM 282320Z 2900/3006 16005KT P6SM SCT150
  FM291300 18010KT P6SM SCT030 SCT150
  FM291700 17010G16KT P6SM SKC
  FM300100 14006KT P6SM SKC


KMIA 290123Z 2901/3006 22012KT P6SM VCSH SCT030 OVC090
  FM290300 VRB04KT P6SM VCSH SCT025 BKN050
  FM290600 VRB03KT P6SM FEW025 SCT050
  FM291500 13011KT P6SM SCT025 BKN050
  FM291700 13012KT P6SM SCT025 BKN050
  PROB30 2918/2924 VRB15G25KT 6SM TSRA SCT015 BKN025CB


KMSP 282339Z 2900/3006 18007KT P6SM FEW070 SCT200
  FM290600 16006KT P6SM SCT250 WS020/21035KT
  FM291200 13010KT P6SM BKN070
  FM291500 14014G21KT P6SM BKN030
  FM292100 16016G26KT P6SM BKN050
  FM300200 16011KT P6SM SCT040 BKN100 WS015/21030KT
  PROB30 3002/3006 3SM TSRA BR BKN040CB


KORD 282320Z 2900/3006 18011G20KT P6SM FEW050 SCT120
  FM290100 18010KT P6SM SCT120
  FM291300 19016G26KT P6SM FEW100 SCT250
  FM291900 19020G32KT P6SM FEW100 SCT250
  FM300100 19017G26KT P6SM SCT150


KPDX 282331Z 2900/2924 11009KT 6SM RA FEW045 BKN060 OVC070
  FM290500 23007KT 6SM -RA FEW015 BKN030 OVC045
  FM291000 29013KT P6SM -SHRA FEW010 SCT025 BKN040
  FM291900 24009KT P6SM VCSH SCT025 BKN045


KPHL 282323Z 2900/3006 30005KT P6SM SCT200
  FM290100 VRB04KT P6SM SCT140
  FM291900 25005KT P6SM FEW070


KPHX 282320Z 2900/3006 26014G22KT P6SM BKN250
  FM290500 26010KT P6SM FEW250
  FM291100 VRB05KT P6SM FEW250
  TEMPO 2912/2916 16006KT
  FM291600 23008KT P6SM FEW250
  FM292000 25016G26KT P6SM FEW250


KPIT 290105Z 2901/3006 VRB02KT P6SM FEW250
  TEMPO 2910/2912 5SM BR
  FM291300 18004KT P6SM SCT250


KSAN 282320Z 2900/3006 28011KT P6SM BKN022 BKN035
  FM290200 23007KT P6SM BKN025 OVC035
  FM291500 21009KT P6SM OVC025
  FM292100 22009KT P6SM SCT025 BKN030


KSEA 282322Z 2900/3006 32010KT P6SM -RA FEW020 BKN060 OVC070
  FM290600 35006KT P6SM -RA OVC025
  FM290900 18005KT P6SM -RA OVC015
  FM291500 20008KT P6SM -RA OVC020
  FM291800 21010KT P6SM SCT030 BKN050
  FM292100 21010KT P6SM VCSH BKN050


KSFO 290102Z 2901/3006 28013G22KT P6SM FEW025 SCT070
  FM290300 28014G24KT P6SM FEW012 BKN025
  FM290800 28013KT P6SM BKN012
  FM291000 29011KT P6SM FEW050 FEW200
  FM291800 29011G19KT P6SM FEW200
  FM292100 28024G32KT P6SM FEW200
  FM300500 30014KT P6SM SKC


KSLC 282335Z 2900/3006 04004KT P6SM SCT040
  FM290500 18005KT P6SM SCT040 SCT050
  FM290900 30009KT 6SM -RA SCT015 BKN030
  FM291200 29010KT P6SM VCSH SCT035 BKN050
  FM300300 01005KT P6SM -RA SCT015 BKN030


KSTL 282320Z 2900/3006 15011KT P6SM SCT250
  FM291400 16014G26KT P6SM FEW250


KTPA 282326Z 2900/3006 28009KT P6SM FEW050
  FM290300 VRB03KT P6SM SKC
  FM291500 24007KT P6SM SCT030
  FM292100 28010KT P6SM SCT050 SCT250